| time (UTC) | temp F | wind direction | speed MPH | gust MPH | rain 1hr in | rain 24hr in | rain mn in | humidity % | barometer mb |
| 20260509160828 | 61 | 302 | 6.0 | 10.0 | 0.00 | 0.01 | 0.01 | 57 | 1019.6 |
| 20260509155329 | 61 | 195 | 1.0 | 6.0 | 0.00 | 0.01 | 0.01 | 59 | 1019.7 |
| 20260509154828 | 60 | 122 | 6.0 | 13.0 | 0.00 | 0.01 | 0.01 | 59 | 1019.7 |
| 20260509153828 | 60 | 265 | 3.0 | 10.0 | 0.00 | 0.01 | 0.01 | 59 | 1019.7 |
| 20260509153328 | 60 | 300 | 5.0 | 8.0 | 0.00 | 0.01 | 0.01 | 59 | 1019.7 |
| 20260509152828 | 60 | 298 | 4.0 | 9.0 | 0.00 | 0.01 | 0.01 | 60 | 1019.7 |
| 20260509152330 | 60 | 290 | 3.0 | 12.0 | 0.00 | 0.01 | 0.01 | 59 | 1019.6 |
| 20260509151828 | 61 | 285 | 3.0 | 6.0 | 0.00 | 0.01 | 0.01 | 59 | 1019.7 |
| 20260509151329 | 61 | 254 | 2.0 | 6.0 | 0.00 | 0.01 | 0.01 | 59 | 1019.7 |
| 20260509150828 | 61 | 292 | 3.0 | 9.0 | 0.00 | 0.01 | 0.01 | 59 | 1019.7 |
| 20260509150330 | 61 | 278 | 4.0 | 9.0 | 0.00 | 0.01 | 0.01 | 58 | 1019.7 |
| 20260509145829 | 61 | 244 | 2.0 | 6.0 | 0.00 | 0.01 | 0.01 | 58 | 1019.7 |
| 20260509145328 | 61 | 275 | 2.0 | 9.0 | 0.00 | 0.01 | 0.01 | 58 | 1019.8 |
| 20260509144828 | 61 | 288 | 3.0 | 9.0 | 0.00 | 0.01 | 0.01 | 58 | 1019.8 |
| 20260509144330 | 61 | 299 | 5.0 | 10.0 | 0.00 | 0.01 | 0.01 | 57 | 1019.8 |
| 20260509143829 | 61 | 294 | 3.0 | 7.0 | 0.00 | 0.01 | 0.01 | 58 | 1019.8 |
| 20260509143329 | 61 | 303 | 5.0 | 9.0 | 0.00 | 0.01 | 0.01 | 58 | 1019.9 |
| 20260509142829 | 61 | 156 | 1.0 | 6.0 | 0.00 | 0.01 | 0.01 | 57 | 1019.8 |
| 20260509142330 | 61 | 242 | 2.0 | 6.0 | 0.00 | 0.01 | 0.01 | 59 | 1019.9 |
| 20260509141829 | 61 | 260 | 2.0 | 6.0 | 0.00 | 0.01 | 0.01 | 59 | 1019.9 |
| 20260509141331 | 61 | 311 | 3.0 | 7.0 | 0.00 | 0.01 | 0.01 | 59 | 1020.0 |
| 20260509140828 | 61 | 309 | 5.0 | 10.0 | 0.00 | 0.01 | 0.01 | 59 | 1020.0 |
| 20260509140329 | 61 | 304 | 6.0 | 9.0 | 0.00 | 0.01 | 0.01 | 58 | 1020.0 |
| 20260509135828 | 61 | 243 | 1.0 | 8.0 | 0.00 | 0.01 | 0.01 | 59 | 1020.0 |
| 20260509135329 | 61 | 303 | 2.0 | 6.0 | 0.00 | 0.01 | 0.01 | 59 | 1020.0 |
| 20260509134330 | 61 | 304 | 4.0 | 9.0 | 0.00 | 0.01 | 0.01 | 60 | 1019.9 |
| 20260509133830 | 61 | 287 | 4.0 | 9.0 | 0.00 | 0.01 | 0.01 | 60 | 1019.9 |
| 20260509133329 | 61 | 296 | 5.0 | 8.0 | 0.00 | 0.01 | 0.01 | 59 | 1019.9 |
| 20260509132829 | 61 | 291 | 3.0 | 6.0 | 0.00 | 0.01 | 0.01 | 60 | 1019.8 |
| 20260509132330 | 61 | 296 | 5.0 | 10.0 | 0.00 | 0.01 | 0.01 | 60 | 1019.8 |
| 20260509131830 | 62 | 301 | 3.0 | 6.0 | 0.00 | 0.01 | 0.01 | 60 | 1019.8 |
| 20260509130829 | 61 | 293 | 3.0 | 6.0 | 0.00 | 0.01 | 0.01 | 59 | 1019.9 |
| 20260509130329 | 61 | 213 | 1.0 | 5.0 | 0.00 | 0.01 | 0.01 | 61 | 1019.9 |
| 20260509125830 | 60 | 278 | 1.0 | 7.0 | 0.00 | 0.01 | 0.01 | 61 | 1019.9 |
| 20260509125329 | 60 | 290 | 2.0 | 6.0 | 0.00 | 0.01 | 0.01 | 61 | 1019.9 |
| 20260509124831 | 60 | 276 | 3.0 | 9.0 | 0.00 | 0.01 | 0.01 | 62 | 1019.9 |
| 20260509124330 | 60 | 143 | 1.0 | 6.0 | 0.00 | 0.01 | 0.01 | 62 | 1019.8 |
| 20260509123829 | 60 | 307 | 5.0 | 9.0 | 0.00 | 0.01 | 0.01 | 61 | 1019.9 |
| 20260509123329 | 60 | 291 | 4.0 | 10.0 | 0.00 | 0.01 | 0.01 | 61 | 1019.9 |
| 20260509121832 | 60 | 279 | 3.0 | 6.0 | 0.00 | 0.01 | 0.01 | 62 | 1020.0 |
| 20260509121330 | 60 | 286 | 3.0 | 6.0 | 0.00 | 0.01 | 0.01 | 63 | 1020.0 |
| 20260509115830 | 60 | 148 | 3.0 | 6.0 | 0.00 | 0.01 | 0.01 | 63 | 1020.1 |
| 20260509114830 | 60 | 295 | 3.0 | 6.0 | 0.00 | 0.01 | 0.01 | 63 | 1020.1 |
| 20260509114331 | 60 | 279 | 3.0 | 6.0 | 0.00 | 0.01 | 0.01 | 65 | 1020.0 |
| 20260509113330 | 60 | 293 | 3.0 | 12.0 | 0.00 | 0.01 | 0.01 | 65 | 1020.1 |
| 20260509112332 | 59 | 309 | 3.0 | 6.0 | 0.00 | 0.01 | 0.01 | 65 | 1020.0 |
| 20260509111830 | 59 | 137 | 2.0 | 10.0 | 0.00 | 0.01 | 0.01 | 66 | 1020.1 |
| 20260509111330 | 60 | 301 | 7.0 | 13.0 | 0.00 | 0.01 | 0.01 | 64 | 1020.0 |
| 20260509105832 | 59 | 311 | 3.0 | 8.0 | 0.00 | 0.01 | 0.01 | 67 | 1020.0 |
| 20260509105331 | 59 | 165 | 3.0 | 6.0 | 0.00 | 0.01 | 0.01 | 67 | 1020.0 |
| 20260509104831 | 58 | 199 | 1.0 | 10.0 | 0.00 | 0.01 | 0.01 | 68 | 1020.0 |
| 20260509104330 | 58 | 259 | 5.0 | 9.0 | 0.00 | 0.01 | 0.01 | 67 | 1020.0 |
| 20260509103832 | 59 | 307 | 6.0 | 13.0 | 0.00 | 0.01 | 0.01 | 67 | 1020.0 |
| 20260509103332 | 58 | 209 | 3.0 | 6.0 | 0.00 | 0.01 | 0.01 | 68 | 1020.1 |
| 20260509102830 | 58 | 130 | 2.0 | 8.0 | 0.00 | 0.01 | 0.01 | 69 | 1020.1 |
| 20260509102331 | 58 | 314 | 3.0 | 8.0 | 0.00 | 0.01 | 0.01 | 67 | 1020.2 |
| 20260509101832 | 58 | 281 | 2.0 | 7.0 | 0.00 | 0.01 | 0.01 | 69 | 1020.3 |
| 20260509101331 | 58 | 109 | 3.0 | 7.0 | 0.00 | 0.01 | 0.01 | 69 | 1020.3 |
| 20260509100332 | 58 | 298 | 1.0 | 6.0 | 0.00 | 0.01 | 0.01 | 71 | 1020.2 |
| 20260509095831 | 57 | 288 | 2.0 | 6.0 | 0.00 | 0.01 | 0.01 | 71 | 1020.2 |
| 20260509095331 | 56 | 129 | 1.0 | 6.0 | 0.00 | 0.01 | 0.01 | 73 | 1020.2 |
| 20260509094833 | 56 | 274 | 2.0 | 6.0 | 0.00 | 0.01 | 0.01 | 72 | 1020.2 |
| 20260509094331 | 55 | 265 | 2.0 | 10.0 | 0.00 | 0.01 | 0.01 | 74 | 1020.3 |
| 20260509093831 | 54 | 290 | 3.0 | 7.0 | 0.00 | 0.01 | 0.01 | 74 | 1020.2 |
| 20260509093331 | 54 | 268 | 2.0 | 8.0 | 0.00 | 0.01 | 0.01 | 74 | 1020.2 |
| 20260509092832 | 54 | 288 | 1.0 | 5.0 | 0.00 | 0.01 | 0.01 | 74 | 1020.2 |
| 20260509092330 | 54 | 129 | 1.0 | 6.0 | 0.00 | 0.01 | 0.01 | 76 | 1020.3 |
| 20260509091832 | 53 | 287 | 3.0 | 7.0 | 0.00 | 0.01 | 0.01 | 76 | 1020.4 |
| 20260509090831 | 53 | 304 | 2.0 | 6.0 | 0.00 | 0.01 | 0.01 | 74 | 1020.4 |
| 20260509090331 | 52 | 297 | 2.0 | 6.0 | 0.00 | 0.01 | 0.01 | 76 | 1020.4 |
| 20260509085832 | 52 | 302 | 2.0 | 7.0 | 0.00 | 0.01 | 0.01 | 76 | 1020.3 |
| 20260509085331 | 51 | 301 | 4.0 | 12.0 | 0.00 | 0.01 | 0.01 | 76 | 1020.3 |
| 20260509084831 | 51 | 304 | 3.0 | 7.0 | 0.00 | 0.01 | 0.01 | 76 | 1020.4 |
| 20260509084332 | 51 | 299 | 5.0 | 9.0 | 0.00 | 0.01 | 0.01 | 76 | 1020.3 |
| 20260509083831 | 51 | 306 | 7.0 | 10.0 | 0.00 | 0.01 | 0.01 | 76 | 1020.3 |
| 20260509083331 | 51 | 298 | 3.0 | 8.0 | 0.00 | 0.01 | 0.01 | 77 | 1020.3 |
| 20260509082833 | 51 | 297 | 2.0 | 6.0 | 0.00 | 0.01 | 0.01 | 77 | 1020.2 |
| 20260509082332 | 50 | 306 | 5.0 | 8.0 | 0.00 | 0.01 | 0.01 | 77 | 1020.2 |
| 20260509081832 | 50 | 302 | 2.0 | 7.0 | 0.00 | 0.01 | 0.01 | 78 | 1020.1 |
| 20260509081333 | 50 | 280 | 3.0 | 8.0 | 0.00 | 0.01 | 0.01 | 78 | 1020.2 |
| 20260509080332 | 50 | 320 | 2.0 | 6.0 | 0.00 | 0.01 | 0.01 | 80 | 1020.1 |
| 20260509075833 | 50 | 308 | 2.0 | 8.0 | 0.00 | 0.01 | 0.01 | 80 | 1020.1 |
| 20260509075333 | 49 | 312 | 2.0 | 7.0 | 0.00 | 0.01 | 0.01 | 80 | 1020.1 |
| 20260509074832 | 49 | 304 | 5.0 | 9.0 | 0.00 | 0.01 | 0.01 | 80 | 1020.0 |
| 20260509074332 | 49 | 300 | 3.0 | 7.0 | 0.00 | 0.01 | 0.01 | 80 | 1019.9 |
| 20260509073832 | 49 | 303 | 5.0 | 12.0 | 0.00 | 0.01 | 0.01 | 79 | 1019.9 |
| 20260509073333 | 49 | 316 | 3.0 | 7.0 | 0.00 | 0.01 | 0.01 | 80 | 1019.9 |
| 20260509072833 | 49 | 301 | 3.0 | 8.0 | 0.00 | 0.01 | 0.01 | 80 | 1020.0 |
| 20260509072332 | 49 | 314 | 4.0 | 8.0 | 0.00 | 0.01 | 0.01 | 81 | 1019.9 |
| 20260509071332 | 48 | 303 | 3.0 | 6.0 | 0.01 | 0.01 | 0.01 | 82 | 1019.9 |
| 20260509070832 | 48 | 309 | 3.0 | 6.0 | 0.01 | 0.01 | 0.01 | 82 | 1019.8 |
| 20260509070332 | 48 | 300 | 5.0 | 9.0 | 0.01 | 0.01 | 0.01 | 82 | 1019.8 |
| 20260509065832 | 48 | 311 | 3.0 | 7.0 | 0.01 | 0.01 | 0.01 | 83 | 1019.8 |
| 20260509064833 | 47 | 301 | 3.0 | 6.0 | 0.01 | 0.01 | 0.01 | 83 | 1019.7 |
| 20260509064333 | 47 | 304 | 2.0 | 8.0 | 0.01 | 0.01 | 0.01 | 84 | 1019.6 |
| 20260509063834 | 47 | 312 | 3.0 | 6.0 | 0.01 | 0.01 | 0.01 | 84 | 1019.6 |
| 20260509063332 | 47 | 309 | 4.0 | 8.0 | 0.01 | 0.01 | 0.01 | 84 | 1019.7 |
| 20260509062832 | 47 | 303 | 5.0 | 7.0 | 0.01 | 0.01 | 0.01 | 85 | 1019.7 |
| 20260509062333 | 46 | 304 | 4.0 | 6.0 | 0.01 | 0.01 | 0.01 | 85 | 1019.6 |
| 20260509061835 | 46 | 307 | 3.0 | 6.0 | 0.00 | 0.00 | 0.00 | 85 | 1019.6 |
| 20260509060835 | 46 | 307 | 2.0 | 6.0 | 0.00 | 0.00 | 0.00 | 86 | 1019.7 |
| 20260509060333 | 46 | 309 | 2.0 | 6.0 | 0.00 | 0.00 | 0.00 | 86 | 1019.7 |
| 20260509055833 | 46 | 311 | 3.0 | 6.0 | 0.00 | 0.00 | 0.00 | 86 | 1019.7 |
| 20260509055333 | 46 | 312 | 3.0 | 6.0 | 0.00 | 0.00 | 0.00 | 86 | 1019.7 |
| 20260509054833 | 45 | 311 | 3.0 | 6.0 | 0.00 | 0.00 | 0.00 | 86 | 1019.6 |
| 20260509054333 | 45 | 307 | 3.0 | 6.0 | 0.00 | 0.00 | 0.00 | 86 | 1019.5 |
| 20260509053833 | 45 | 309 | 1.0 | 6.0 | 0.00 | 0.00 | 0.00 | 86 | 1019.5 |
| 20260509053334 | 45 | 304 | 2.0 | 5.0 | 0.00 | 0.00 | 0.00 | 86 | 1019.3 |
| 20260509052833 | 45 | 303 | 3.0 | 7.0 | 0.00 | 0.00 | 0.00 | 86 | 1019.3 |
| 20260509052333 | 45 | 311 | 3.0 | 6.0 | 0.00 | 0.00 | 0.00 | 86 | 1019.3 |
| 20260509051333 | 45 | 308 | 2.0 | 6.0 | 0.00 | 0.00 | 0.00 | 86 | 1019.1 |
| 20260509050835 | 45 | 303 | 3.0 | 6.0 | 0.00 | 0.00 | 0.00 | 86 | 1019.1 |
| 20260509050333 | 45 | 302 | 3.0 | 6.0 | 0.00 | 0.00 | 0.00 | 86 | 1019.0 |
| 20260509045833 | 45 | 303 | 5.0 | 7.0 | 0.00 | 0.00 | 0.00 | 86 | 1019.0 |
| 20260509045333 | 45 | 306 | 5.0 | 8.0 | 0.00 | 0.00 | 0.00 | 86 | 1019.1 |
| 20260509044833 | 45 | 317 | 5.0 | 7.0 | 0.00 | 0.00 | 0.00 | 85 | 1019.2 |
| 20260509043834 | 45 | 315 | 4.0 | 6.0 | 0.00 | 0.00 | 0.00 | 85 | 1019.1 |
| 20260509043334 | 45 | 313 | 2.0 | 6.0 | 0.00 | 0.00 | 0.00 | 85 | 1019.1 |
| 20260509042834 | 46 | 311 | 3.0 | 7.0 | 0.00 | 0.00 | 0.00 | 85 | 1019.1 |
| 20260509042335 | 46 | 308 | 2.0 | 6.0 | 0.00 | 0.00 | 0.00 | 85 | 1019.1 |
| 20260509041834 | 46 | 316 | 3.0 | 6.0 | 0.00 | 0.00 | 0.00 | 85 | 1019.1 |
| 20260509041333 | 46 | 308 | 3.0 | 6.0 | 0.00 | 0.00 | 0.00 | 85 | 1019.0 |
| 20260509040834 | 46 | 309 | 3.0 | 6.0 | 0.00 | 0.00 | 0.00 | 85 | 1019.0 |
| 20260509040334 | 46 | 307 | 3.0 | 6.0 | 0.00 | 0.00 | 0.00 | 85 | 1019.0 |
| 20260509035834 | 46 | 310 | 2.0 | 5.0 | 0.00 | 0.00 | 0.00 | 85 | 1019.0 |
| 20260509035333 | 46 | 310 | 2.0 | 3.0 | 0.00 | 0.00 | 0.00 | 85 | 1019.0 |
| 20260509034834 | 46 | 310 | 3.0 | 6.0 | 0.00 | 0.00 | 0.00 | 85 | 1018.9 |
| 20260509034334 | 46 | 320 | 2.0 | 5.0 | 0.00 | 0.00 | 0.00 | 85 | 1018.8 |
| 20260509033835 | 46 | 306 | 2.0 | 6.0 | 0.00 | 0.00 | 0.00 | 85 | 1018.8 |
| 20260509033333 | 46 | 314 | 3.0 | 6.0 | 0.00 | 0.00 | 0.00 | 85 | 1018.8 |
| 20260509032835 | 46 | 317 | 3.0 | 6.0 | 0.00 | 0.00 | 0.00 | 85 | 1018.8 |
| 20260509032334 | 46 | 309 | 3.0 | 6.0 | 0.00 | 0.00 | 0.00 | 86 | 1018.8 |
| 20260509031834 | 46 | 306 | 5.0 | 6.0 | 0.00 | 0.00 | 0.00 | 86 | 1018.8 |
| 20260509031335 | 46 | 311 | 3.0 | 7.0 | 0.00 | 0.00 | 0.00 | 86 | 1018.9 |
| 20260509030334 | 46 | 315 | 3.0 | 7.0 | 0.00 | 0.00 | 0.00 | 87 | 1018.9 |
| 20260509025835 | 46 | 309 | 2.0 | 6.0 | 0.00 | 0.00 | 0.00 | 87 | 1018.8 |
| 20260509025334 | 46 | 313 | 3.0 | 6.0 | 0.00 | 0.00 | 0.00 | 87 | 1018.8 |
| 20260509024335 | 46 | 304 | 2.0 | 6.0 | 0.00 | 0.00 | 0.00 | 88 | 1018.8 |
| 20260509023835 | 46 | 313 | 2.0 | 6.0 | 0.00 | 0.00 | 0.00 | 88 | 1018.8 |
| 20260509023335 | 46 | 308 | 3.0 | 6.0 | 0.00 | 0.00 | 0.00 | 88 | 1018.7 |
| 20260509022834 | 46 | 315 | 3.0 | 5.0 | 0.00 | 0.00 | 0.00 | 87 | 1018.8 |
| 20260509020835 | 46 | 313 | 1.0 | 5.0 | 0.00 | 0.00 | 0.00 | 87 | 1018.7 |
| 20260509020334 | 47 | 311 | 1.0 | 5.0 | 0.00 | 0.00 | 0.00 | 86 | 1018.7 |
| 20260509015836 | 47 | 310 | 1.0 | 5.0 | 0.00 | 0.00 | 0.00 | 86 | 1018.7 |
| 20260509015334 | 47 | 315 | 3.0 | 6.0 | 0.00 | 0.00 | 0.00 | 85 | 1018.6 |
| 20260509014836 | 48 | 313 | 2.0 | 6.0 | 0.00 | 0.00 | 0.00 | 84 | 1018.6 |
| 20260509014335 | 48 | 314 | 2.0 | 5.0 | 0.00 | 0.00 | 0.00 | 83 | 1018.7 |
| 20260509013836 | 48 | 311 | 3.0 | 9.0 | 0.00 | 0.00 | 0.00 | 83 | 1018.7 |
| 20260509013335 | 48 | 313 | 5.0 | 8.0 | 0.00 | 0.00 | 0.00 | 83 | 1018.6 |
| 20260509012835 | 48 | 313 | 2.0 | 6.0 | 0.00 | 0.00 | 0.00 | 83 | 1018.7 |
| 20260509012335 | 48 | 311 | 2.0 | 3.0 | 0.00 | 0.00 | 0.00 | 83 | 1018.7 |
| 20260509011834 | 48 | 311 | 2.0 | 3.0 | 0.00 | 0.00 | 0.00 | 83 | 1018.7 |
| 20260509011336 | 48 | 300 | 1.0 | 3.0 | 0.00 | 0.00 | 0.00 | 83 | 1018.7 |
| 20260509010835 | 48 | 287 | 0.0 | 1.0 | 0.00 | 0.00 | 0.00 | 83 | 1018.7 |
| 20260509010336 | 48 | 300 | 0.0 | 2.0 | 0.00 | 0.00 | 0.00 | 83 | 1018.6 |
| 20260509005336 | 49 | 293 | 0.0 | 2.0 | 0.00 | 0.00 | 0.00 | 83 | 1018.6 |
| 20260509004836 | 49 | 318 | 1.0 | 3.0 | 0.00 | 0.00 | 0.00 | 83 | 1018.6 |
| 20260509004335 | 49 | 299 | 0.0 | 2.0 | 0.00 | 0.00 | 0.00 | 83 | 1018.5 |
| 20260509003835 | 49 | 297 | 0.0 | 5.0 | 0.00 | 0.00 | 0.00 | 83 | 1018.5 |
| 20260509003336 | 49 | 282 | 0.0 | 3.0 | 0.00 | 0.00 | 0.00 | 83 | 1018.6 |
| 20260509002337 | 49 | 300 | 0.0 | 2.0 | 0.00 | 0.00 | 0.00 | 84 | 1018.6 |
| 20260509001835 | 49 | 306 | 2.0 | 6.0 | 0.00 | 0.00 | 0.00 | 84 | 1018.5 |
| 20260509001336 | 49 | 301 | 0.0 | 2.0 | 0.00 | 0.00 | 0.00 | 85 | 1018.5 |
| 20260509000835 | 49 | 265 | 1.0 | 3.0 | 0.00 | 0.00 | 0.00 | 85 | 1018.5 |
| 20260509000337 | 49 | 177 | 0.0 | 2.0 | 0.00 | 0.00 | 0.00 | 85 | 1018.5 |
| 20260508235835 | 49 | 246 | 0.0 | 5.0 | 0.00 | 0.00 | 0.00 | 85 | 1018.4 |
| 20260508235336 | 49 | 258 | 0.0 | 2.0 | 0.00 | 0.00 | 0.00 | 85 | 1018.4 |
| 20260508234835 | 49 | 97 | 0.0 | 2.0 | 0.00 | 0.00 | 0.00 | 85 | 1018.5 |
| 20260508234337 | 49 | 243 | 0.0 | 1.0 | 0.00 | 0.00 | 0.00 | 85 | 1018.4 |
| 20260508233836 | 49 | 251 | 0.0 | 1.0 | 0.00 | 0.00 | 0.00 | 85 | 1018.4 |
| 20260508233335 | 49 | 252 | 0.0 | 2.0 | 0.00 | 0.00 | 0.00 | 84 | 1018.4 |
| 20260508232837 | 49 | 272 | 0.0 | 2.0 | 0.00 | 0.00 | 0.00 | 84 | 1018.4 |
| 20260508232335 | 49 | 292 | 1.0 | 5.0 | 0.00 | 0.00 | 0.00 | 84 | 1018.4 |
| 20260508231836 | 49 | 264 | 1.0 | 2.0 | 0.00 | 0.00 | 0.00 | 84 | 1018.5 |
| 20260508231336 | 49 | 251 | 1.0 | 3.0 | 0.00 | 0.00 | 0.00 | 84 | 1018.4 |
| 20260508230337 | 50 | 288 | 0.0 | 2.0 | 0.00 | 0.00 | 0.00 | 84 | 1018.4 |
| 20260508225837 | 50 | 283 | 0.0 | 1.0 | 0.00 | 0.00 | 0.00 | 83 | 1018.4 |
| 20260508225337 | 50 | 225 | 0.0 | 1.0 | 0.00 | 0.00 | 0.00 | 83 | 1018.4 |
| 20260508224337 | 50 | 261 | 0.0 | 1.0 | 0.00 | 0.00 | 0.00 | 83 | 1018.4 |
| 20260508223336 | 50 | 194 | 0.0 | 1.0 | 0.00 | 0.00 | 0.00 | 82 | 1018.4 |
| 20260508222837 | 50 | 257 | 0.0 | 1.0 | 0.00 | 0.00 | 0.00 | 82 | 1018.3 |
| 20260508222338 | 50 | 200 | 0.0 | 1.0 | 0.00 | 0.00 | 0.00 | 82 | 1018.2 |
| 20260508221837 | 50 | 134 | 1.0 | 3.0 | 0.00 | 0.00 | 0.00 | 82 | 1018.2 |
| 20260508221336 | 50 | 113 | 0.0 | 1.0 | 0.00 | 0.00 | 0.00 | 82 | 1018.2 |
| 20260508220836 | 51 | 143 | 0.0 | 1.0 | 0.00 | 0.00 | 0.00 | 82 | 1018.2 |
| 20260508220337 | 51 | 169 | 0.0 | 1.0 | 0.00 | 0.00 | 0.00 | 81 | 1018.1 |
| 20260508215337 | 51 | 130 | 0.0 | 1.0 | 0.00 | 0.00 | 0.00 | 81 | 1018.2 |
| 20260508214837 | 51 | 128 | 0.0 | 1.0 | 0.00 | 0.00 | 0.00 | 81 | 1018.1 |
| 20260508214337 | 51 | 116 | 0.0 | 2.0 | 0.00 | 0.00 | 0.00 | 80 | 1018.1 |
| 20260508213836 | 51 | 123 | 1.0 | 3.0 | 0.00 | 0.00 | 0.00 | 80 | 1018.1 |
| 20260508213338 | 52 | 99 | 0.0 | 2.0 | 0.00 | 0.00 | 0.00 | 80 | 1018.1 |
| 20260508212837 | 52 | 116 | 0.0 | 2.0 | 0.00 | 0.00 | 0.00 | 80 | 1018.1 |
| 20260508212337 | 52 | 108 | 1.0 | 3.0 | 0.00 | 0.00 | 0.00 | 81 | 1018.1 |
| 20260508211837 | 52 | 216 | 0.0 | 2.0 | 0.00 | 0.00 | 0.00 | 80 | 1018.0 |
| 20260508211337 | 52 | 138 | 0.0 | 2.0 | 0.00 | 0.00 | 0.00 | 80 | 1017.9 |
| 20260508205837 | 52 | 135 | 0.0 | 1.0 | 0.00 | 0.00 | 0.00 | 80 | 1017.8 |
| 20260508205338 | 53 | 125 | 0.0 | 1.0 | 0.00 | 0.00 | 0.00 | 80 | 1017.8 |
| 20260508204837 | 53 | 111 | 0.0 | 1.0 | 0.00 | 0.00 | 0.00 | 80 | 1017.7 |
| 20260508204338 | 53 | 110 | 1.0 | 2.0 | 0.00 | 0.00 | 0.00 | 80 | 1017.7 |
| 20260508202339 | 54 | 99 | 1.0 | 3.0 | 0.00 | 0.00 | 0.00 | 78 | 1017.4 |
| 20260508201839 | 54 | 91 | 1.0 | 5.0 | 0.00 | 0.00 | 0.00 | 78 | 1017.4 |
| 20260508201337 | 54 | 119 | 1.0 | 3.0 | 0.00 | 0.00 | 0.00 | 77 | 1017.3 |
| 20260508200839 | 54 | 113 | 0.0 | 1.0 | 0.00 | 0.00 | 0.00 | 77 | 1017.3 |
| 20260508195838 | 54 | 106 | 1.0 | 6.0 | 0.00 | 0.00 | 0.00 | 77 | 1017.2 |
| 20260508195338 | 54 | 99 | 1.0 | 5.0 | 0.00 | 0.00 | 0.00 | 76 | 1017.1 |
| 20260508194837 | 54 | 105 | 0.0 | 1.0 | 0.00 | 0.00 | 0.00 | 76 | 1017.0 |
| 20260508194337 | 54 | 107 | 0.0 | 2.0 | 0.00 | 0.00 | 0.00 | 76 | 1017.0 |
| 20260508193837 | 55 | 106 | 0.0 | 6.0 | 0.00 | 0.00 | 0.00 | 75 | 1017.0 |
| 20260508193337 | 55 | 102 | 2.0 | 5.0 | 0.00 | 0.00 | 0.00 | 75 | 1016.9 |
| 20260508192838 | 55 | 103 | 2.0 | 7.0 | 0.00 | 0.00 | 0.00 | 75 | 1016.8 |
| 20260508192338 | 55 | 93 | 2.0 | 7.0 | 0.00 | 0.00 | 0.00 | 74 | 1016.7 |
| 20260508191839 | 55 | 99 | 1.0 | 3.0 | 0.00 | 0.00 | 0.00 | 74 | 1016.7 |
| 20260508191337 | 56 | 107 | 1.0 | 3.0 | 0.00 | 0.00 | 0.00 | 75 | 1016.5 |
| 20260508190840 | 56 | 91 | 0.0 | 2.0 | 0.00 | 0.00 | 0.00 | 76 | 1016.3 |
| 20260508185838 | 56 | 107 | 2.0 | 3.0 | 0.00 | 0.00 | 0.00 | 79 | 1016.3 |
| 20260508185338 | 56 | 140 | 0.0 | 1.0 | 0.00 | 0.00 | 0.00 | 80 | 1016.3 |
| 20260508184839 | 56 | 150 | 0.0 | 1.0 | 0.00 | 0.00 | 0.00 | 79 | 1016.3 |
| 20260508184338 | 57 | 140 | 0.0 | 1.0 | 0.00 | 0.00 | 0.00 | 79 | 1016.2 |
| 20260508183840 | 57 | 188 | 0.0 | 0.0 | 0.00 | 0.00 | 0.00 | 79 | 1016.2 |
| 20260508183338 | 57 | 145 | 0.0 | 1.0 | 0.00 | 0.00 | 0.00 | 79 | 1016.1 |
| 20260508182839 | 57 | 135 | 0.0 | 2.0 | 0.00 | 0.00 | 0.00 | 78 | 1016.1 |
| 20260508182340 | 57 | 148 | 1.0 | 3.0 | 0.00 | 0.00 | 0.00 | 78 | 1016.0 |
| 20260508181838 | 57 | 123 | 0.0 | 2.0 | 0.00 | 0.00 | 0.00 | 77 | 1016.0 |
| 20260508181339 | 57 | 116 | 2.0 | 6.0 | 0.00 | 0.00 | 0.00 | 77 | 1015.9 |
| 20260508180840 | 57 | 116 | 2.0 | 6.0 | 0.00 | 0.00 | 0.00 | 76 | 1015.9 |
| 20260508175339 | 57 | 139 | 2.0 | 6.0 | 0.00 | 0.00 | 0.00 | 77 | 1016.1 |
| 20260508174839 | 57 | 145 | 2.0 | 6.0 | 0.00 | 0.00 | 0.00 | 78 | 1016.1 |
| 20260508174339 | 57 | 134 | 1.0 | 2.0 | 0.00 | 0.00 | 0.00 | 78 | 1016.0 |
| 20260508173839 | 57 | 152 | 3.0 | 6.0 | 0.00 | 0.00 | 0.00 | 78 | 1016.0 |
| 20260508172839 | 57 | 150 | 5.0 | 7.0 | 0.00 | 0.00 | 0.00 | 78 | 1015.9 |
| 20260508172339 | 57 | 154 | 3.0 | 6.0 | 0.00 | 0.00 | 0.00 | 78 | 1015.9 |
| 20260508171838 | 57 | 120 | 2.0 | 6.0 | 0.00 | 0.00 | 0.00 | 78 | 1015.9 |
| 20260508171338 | 57 | 108 | 3.0 | 8.0 | 0.00 | 0.00 | 0.00 | 77 | 1015.8 |
| 20260508170839 | 57 | 130 | 3.0 | 8.0 | 0.00 | 0.00 | 0.00 | 77 | 1015.8 |
| 20260508170339 | 58 | 167 | 4.0 | 6.0 | 0.00 | 0.00 | 0.00 | 76 | 1015.8 |
| 20260508165839 | 58 | 151 | 3.0 | 8.0 | 0.00 | 0.00 | 0.00 | 76 | 1015.7 |
| 20260508164840 | 58 | 140 | 1.0 | 3.0 | 0.00 | 0.00 | 0.00 | 75 | 1015.6 |
| 20260508164338 | 58 | 121 | 2.0 | 6.0 | 0.00 | 0.00 | 0.00 | 75 | 1015.6 |
| 20260508163840 | 58 | 102 | 2.0 | 8.0 | 0.00 | 0.00 | 0.00 | 74 | 1015.6 |
| 20260508163340 | 58 | 102 | 3.0 | 7.0 | 0.00 | 0.00 | 0.00 | 75 | 1015.6 |
| 20260508162839 | 58 | 96 | 5.0 | 8.0 | 0.00 | 0.00 | 0.00 | 74 | 1015.6 |
| 20260508162339 | 59 | 123 | 1.0 | 7.0 | 0.00 | 0.01 | 0.00 | 74 | 1015.5 |
| 20260508161841 | 59 | 146 | 1.0 | 3.0 | 0.00 | 0.01 | 0.00 | 75 | 1015.5 |
| 20260508161340 | 58 | 99 | 3.0 | 6.0 | 0.00 | 0.01 | 0.00 | 75 | 1015.5 |